sensor_id;sensor_type;location;lat;lon;timestamp;temperature;humidity
26186;DHT22;20067;48.764;9.176;2024-03-08T00:00:14;5.30;91.30
26186;DHT22;20067;48.764;9.176;2024-03-08T00:02:41;5.20;91.30
26186;DHT22;20067;48.764;9.176;2024-03-08T00:05:08;5.10;91.30
26186;DHT22;20067;48.764;9.176;2024-03-08T00:07:39;5.10;91.30
26186;DHT22;20067;48.764;9.176;2024-03-08T00:10:07;5.10;91.30
26186;DHT22;20067;48.764;9.176;2024-03-08T00:12:36;5.20;91.30
26186;DHT22;20067;48.764;9.176;2024-03-08T00:15:02;5.40;91.30
26186;DHT22;20067;48.764;9.176;2024-03-08T00:17:28;5.60;91.30
26186;DHT22;20067;48.764;9.176;2024-03-08T00:19:54;5.60;91.30
26186;DHT22;20067;48.764;9.176;2024-03-08T00:22:20;5.70;91.30
26186;DHT22;20067;48.764;9.176;2024-03-08T00:24:45;5.70;91.30
26186;DHT22;20067;48.764;9.176;2024-03-08T00:27:11;5.60;91.30
26186;DHT22;20067;48.764;9.176;2024-03-08T00:29:37;5.60;91.30
26186;DHT22;20067;48.764;9.176;2024-03-08T00:32:06;5.50;91.30
26186;DHT22;20067;48.764;9.176;2024-03-08T00:34:35;5.50;91.30
26186;DHT22;20067;48.764;9.176;2024-03-08T00:37:02;5.40;91.30
26186;DHT22;20067;48.764;9.176;2024-03-08T00:39:28;5.40;91.30
26186;DHT22;20067;48.764;9.176;2024-03-08T00:41:54;5.30;91.30
26186;DHT22;20067;48.764;9.176;2024-03-08T00:44:19;5.20;91.30
26186;DHT22;20067;48.764;9.176;2024-03-08T00:46:45;5.20;91.30
26186;DHT22;20067;48.764;9.176;2024-03-08T00:49:11;5.00;91.30
26186;DHT22;20067;48.764;9.176;2024-03-08T00:51:38;5.00;91.30
26186;DHT22;20067;48.764;9.176;2024-03-08T00:54:03;5.00;91.30
26186;DHT22;20067;48.764;9.176;2024-03-08T00:56:29;5.00;91.30
26186;DHT22;20067;48.764;9.176;2024-03-08T00:58:54;5.00;91.30
26186;DHT22;20067;48.764;9.176;2024-03-08T01:01:20;4.90;91.30
26186;DHT22;20067;48.764;9.176;2024-03-08T01:03:46;4.80;91.30
26186;DHT22;20067;48.764;9.176;2024-03-08T01:06:11;4.70;91.30
26186;DHT22;20067;48.764;9.176;2024-03-08T01:08:37;4.80;91.30
26186;DHT22;20067;48.764;9.176;2024-03-08T01:11:08;4.80;91.30
26186;DHT22;20067;48.764;9.176;2024-03-08T01:13:34;4.80;91.30
26186;DHT22;20067;48.764;9.176;2024-03-08T01:16:00;4.80;91.30
26186;DHT22;20067;48.764;9.176;2024-03-08T01:18:25;4.70;91.30
26186;DHT22;20067;48.764;9.176;2024-03-08T01:20:51;4.60;91.30
26186;DHT22;20067;48.764;9.176;2024-03-08T01:23:16;4.50;91.30
26186;DHT22;20067;48.764;9.176;2024-03-08T01:25:42;4.30;91.30
26186;DHT22;20067;48.764;9.176;2024-03-08T01:28:09;4.30;91.30
26186;DHT22;20067;48.764;9.176;2024-03-08T01:30:34;4.20;91.30
26186;DHT22;20067;48.764;9.176;2024-03-08T01:33:02;4.20;91.30
26186;DHT22;20067;48.764;9.176;2024-03-08T01:35:27;4.30;91.30
26186;DHT22;20067;48.764;9.176;2024-03-08T01:37:53;4.40;91.30
26186;DHT22;20067;48.764;9.176;2024-03-08T01:40:19;4.50;91.30
26186;DHT22;20067;48.764;9.176;2024-03-08T01:42:45;4.60;91.30
26186;DHT22;20067;48.764;9.176;2024-03-08T01:45:11;4.70;91.30
26186;DHT22;20067;48.764;9.176;2024-03-08T01:47:37;4.70;91.30
26186;DHT22;20067;48.764;9.176;2024-03-08T01:50:03;4.80;91.30
26186;DHT22;20067;48.764;9.176;2024-03-08T01:52:33;4.60;91.30
26186;DHT22;20067;48.764;9.176;2024-03-08T01:55:04;4.60;91.30
26186;DHT22;20067;48.764;9.176;2024-03-08T01:57:32;4.50;91.30
26186;DHT22;20067;48.764;9.176;2024-03-08T02:00:03;4.40;91.30
26186;DHT22;20067;48.764;9.176;2024-03-08T02:02:32;4.50;91.30
26186;DHT22;20067;48.764;9.176;2024-03-08T02:04:58;4.80;91.30
26186;DHT22;20067;48.764;9.176;2024-03-08T02:07:23;4.90;91.30
26186;DHT22;20067;48.764;9.176;2024-03-08T02:09:49;4.80;91.30
26186;DHT22;20067;48.764;9.176;2024-03-08T02:12:14;4.80;91.30
26186;DHT22;20067;48.764;9.176;2024-03-08T02:14:40;4.70;91.30
26186;DHT22;20067;48.764;9.176;2024-03-08T02:17:07;4.70;91.30
26186;DHT22;20067;48.764;9.176;2024-03-08T02:19:33;4.50;91.30
26186;DHT22;20067;48.764;9.176;2024-03-08T02:21:59;4.60;91.30
26186;DHT22;20067;48.764;9.176;2024-03-08T02:24:24;4.70;91.30
26186;DHT22;20067;48.764;9.176;2024-03-08T02:26:50;4.80;91.30
26186;DHT22;20067;48.764;9.176;2024-03-08T02:29:16;4.60;91.30
26186;DHT22;20067;48.764;9.176;2024-03-08T02:31:42;4.60;91.30
26186;DHT22;20067;48.764;9.176;2024-03-08T02:34:08;4.60;91.30
26186;DHT22;20067;48.764;9.176;2024-03-08T02:36:35;4.70;91.30
26186;DHT22;20067;48.764;9.176;2024-03-08T02:39:03;4.70;91.30
26186;DHT22;20067;48.764;9.176;2024-03-08T02:41:30;4.80;91.30
26186;DHT22;20067;48.764;9.176;2024-03-08T02:43:56;4.90;91.30
26186;DHT22;20067;48.764;9.176;2024-03-08T02:46:21;4.90;91.30
26186;DHT22;20067;48.764;9.176;2024-03-08T02:48:47;4.90;91.30
26186;DHT22;20067;48.764;9.176;2024-03-08T02:51:12;4.50;91.30
26186;DHT22;20067;48.764;9.176;2024-03-08T02:53:39;4.20;91.30
26186;DHT22;20067;48.764;9.176;2024-03-08T02:56:04;4.00;91.30
26186;DHT22;20067;48.764;9.176;2024-03-08T02:58:33;3.80;91.30
26186;DHT22;20067;48.764;9.176;2024-03-08T03:00:59;4.00;91.30
26186;DHT22;20067;48.764;9.176;2024-03-08T03:03:25;4.20;91.30
26186;DHT22;20067;48.764;9.176;2024-03-08T03:05:52;4.50;91.30
26186;DHT22;20067;48.764;9.176;2024-03-08T03:08:21;4.60;91.30
26186;DHT22;20067;48.764;9.176;2024-03-08T03:10:47;4.70;91.30
26186;DHT22;20067;48.764;9.176;2024-03-08T03:13:12;4.50;91.30
26186;DHT22;20067;48.764;9.176;2024-03-08T03:15:39;4.50;91.30
26186;DHT22;20067;48.764;9.176;2024-03-08T03:18:07;4.40;91.30
26186;DHT22;20067;48.764;9.176;2024-03-08T03:20:33;4.50;91.30
26186;DHT22;20067;48.764;9.176;2024-03-08T03:23:02;4.20;91.30
26186;DHT22;20067;48.764;9.176;2024-03-08T03:25:28;4.30;91.30
26186;DHT22;20067;48.764;9.176;2024-03-08T03:27:58;4.00;91.30
26186;DHT22;20067;48.764;9.176;2024-03-08T03:30:24;3.90;91.30
26186;DHT22;20067;48.764;9.176;2024-03-08T03:32:52;3.90;91.30
26186;DHT22;20067;48.764;9.176;2024-03-08T03:35:18;3.90;91.30
26186;DHT22;20067;48.764;9.176;2024-03-08T03:37:46;4.00;91.30
26186;DHT22;20067;48.764;9.176;2024-03-08T03:40:27;4.10;91.30
26186;DHT22;20067;48.764;9.176;2024-03-08T03:42:53;4.00;91.30
26186;DHT22;20067;48.764;9.176;2024-03-08T03:45:19;3.90;91.30
26186;DHT22;20067;48.764;9.176;2024-03-08T03:47:45;3.90;91.30
26186;DHT22;20067;48.764;9.176;2024-03-08T03:50:11;3.90;91.30
26186;DHT22;20067;48.764;9.176;2024-03-08T03:52:37;4.00;91.30
26186;DHT22;20067;48.764;9.176;2024-03-08T03:55:03;4.10;91.30
26186;DHT22;20067;48.764;9.176;2024-03-08T03:57:30;4.10;91.30
26186;DHT22;20067;48.764;9.176;2024-03-08T03:59:56;4.00;91.30
26186;DHT22;20067;48.764;9.176;2024-03-08T04:02:24;4.20;91.30
26186;DHT22;20067;48.764;9.176;2024-03-08T04:04:49;4.20;91.30
26186;DHT22;20067;48.764;9.176;2024-03-08T04:07:15;4.00;91.30
26186;DHT22;20067;48.764;9.176;2024-03-08T04:09:41;3.80;91.30
26186;DHT22;20067;48.764;9.176;2024-03-08T04:12:06;3.90;91.30
26186;DHT22;20067;48.764;9.176;2024-03-08T04:14:32;3.80;91.30
26186;DHT22;20067;48.764;9.176;2024-03-08T04:16:59;3.50;91.30
26186;DHT22;20067;48.764;9.176;2024-03-08T04:19:25;3.50;91.30
26186;DHT22;20067;48.764;9.176;2024-03-08T04:21:52;3.30;91.30
26186;DHT22;20067;48.764;9.176;2024-03-08T04:24:17;3.20;91.30
26186;DHT22;20067;48.764;9.176;2024-03-08T04:26:43;3.10;91.30
26186;DHT22;20067;48.764;9.176;2024-03-08T04:29:09;3.20;91.30
26186;DHT22;20067;48.764;9.176;2024-03-08T04:31:34;3.50;91.30
26186;DHT22;20067;48.764;9.176;2024-03-08T04:34:00;3.40;91.30
26186;DHT22;20067;48.764;9.176;2024-03-08T04:36:25;3.30;91.30
26186;DHT22;20067;48.764;9.176;2024-03-08T04:38:51;3.40;91.30
26186;DHT22;20067;48.764;9.176;2024-03-08T04:41:17;3.50;91.30
26186;DHT22;20067;48.764;9.176;2024-03-08T04:43:43;3.70;91.30
26186;DHT22;20067;48.764;9.176;2024-03-08T04:46:09;3.60;91.30
26186;DHT22;20067;48.764;9.176;2024-03-08T04:48:35;3.60;91.30
26186;DHT22;20067;48.764;9.176;2024-03-08T04:51:03;3.70;91.30
26186;DHT22;20067;48.764;9.176;2024-03-08T04:53:29;3.30;91.30
26186;DHT22;20067;48.764;9.176;2024-03-08T04:55:55;3.10;91.30
26186;DHT22;20067;48.764;9.176;2024-03-08T04:58:23;3.20;91.30
26186;DHT22;20067;48.764;9.176;2024-03-08T05:00:48;3.40;91.30
26186;DHT22;20067;48.764;9.176;2024-03-08T05:03:16;3.10;91.30
26186;DHT22;20067;48.764;9.176;2024-03-08T05:05:41;3.10;91.30
26186;DHT22;20067;48.764;9.176;2024-03-08T05:08:07;3.30;91.30
26186;DHT22;20067;48.764;9.176;2024-03-08T05:10:33;3.20;91.30
26186;DHT22;20067;48.764;9.176;2024-03-08T05:12:58;3.20;91.30
26186;DHT22;20067;48.764;9.176;2024-03-08T05:15:24;3.30;91.30
26186;DHT22;20067;48.764;9.176;2024-03-08T05:17:50;3.30;91.30
26186;DHT22;20067;48.764;9.176;2024-03-08T05:20:15;2.90;91.30
26186;DHT22;20067;48.764;9.176;2024-03-08T05:22:42;3.00;91.30
26186;DHT22;20067;48.764;9.176;2024-03-08T05:25:08;3.20;91.30
26186;DHT22;20067;48.764;9.176;2024-03-08T05:27:35;3.40;91.30
26186;DHT22;20067;48.764;9.176;2024-03-08T05:30:02;3.30;91.30
26186;DHT22;20067;48.764;9.176;2024-03-08T05:32:31;3.60;91.30
26186;DHT22;20067;48.764;9.176;2024-03-08T05:34:57;3.60;91.30
26186;DHT22;20067;48.764;9.176;2024-03-08T05:37:23;3.50;91.30
26186;DHT22;20067;48.764;9.176;2024-03-08T05:39:52;3.30;91.30
26186;DHT22;20067;48.764;9.176;2024-03-08T05:42:17;3.20;91.30
26186;DHT22;20067;48.764;9.176;2024-03-08T05:44:43;3.30;91.30
26186;DHT22;20067;48.764;9.176;2024-03-08T05:47:09;3.10;91.30
26186;DHT22;20067;48.764;9.176;2024-03-08T05:49:36;3.20;91.30
26186;DHT22;20067;48.764;9.176;2024-03-08T05:52:01;3.00;91.30
26186;DHT22;20067;48.764;9.176;2024-03-08T05:54:27;3.40;91.30
26186;DHT22;20067;48.764;9.176;2024-03-08T05:56:53;3.70;91.30
26186;DHT22;20067;48.764;9.176;2024-03-08T05:59:20;3.90;91.30
26186;DHT22;20067;48.764;9.176;2024-03-08T06:01:47;4.10;91.30
26186;DHT22;20067;48.764;9.176;2024-03-08T06:04:12;3.50;91.30
26186;DHT22;20067;48.764;9.176;2024-03-08T06:06:40;3.40;91.30
26186;DHT22;20067;48.764;9.176;2024-03-08T06:09:05;3.30;91.30
26186;DHT22;20067;48.764;9.176;2024-03-08T06:11:42;3.10;91.30
26186;DHT22;20067;48.764;9.176;2024-03-08T06:14:09;3.10;91.30
26186;DHT22;20067;48.764;9.176;2024-03-08T06:16:42;3.40;91.30
26186;DHT22;20067;48.764;9.176;2024-03-08T06:19:09;3.70;91.30
26186;DHT22;20067;48.764;9.176;2024-03-08T06:21:34;3.60;91.30
26186;DHT22;20067;48.764;9.176;2024-03-08T06:24:00;3.60;91.30
26186;DHT22;20067;48.764;9.176;2024-03-08T06:26:26;3.70;91.30
26186;DHT22;20067;48.764;9.176;2024-03-08T06:28:54;4.00;91.30
26186;DHT22;20067;48.764;9.176;2024-03-08T06:31:20;4.10;91.30
26186;DHT22;20067;48.764;9.176;2024-03-08T06:33:46;4.20;91.30
26186;DHT22;20067;48.764;9.176;2024-03-08T06:36:11;4.20;91.30
26186;DHT22;20067;48.764;9.176;2024-03-08T06:38:38;4.10;91.30
26186;DHT22;20067;48.764;9.176;2024-03-08T06:41:10;4.10;91.30
26186;DHT22;20067;48.764;9.176;2024-03-08T06:43:42;4.10;91.30
26186;DHT22;20067;48.764;9.176;2024-03-08T06:46:08;4.10;91.30
26186;DHT22;20067;48.764;9.176;2024-03-08T06:48:34;4.10;91.30
26186;DHT22;20067;48.764;9.176;2024-03-08T06:51:00;4.10;91.30
26186;DHT22;20067;48.764;9.176;2024-03-08T06:53:30;4.10;91.30
26186;DHT22;20067;48.764;9.176;2024-03-08T06:56:04;3.90;91.30
26186;DHT22;20067;48.764;9.176;2024-03-08T06:58:30;4.20;91.30
26186;DHT22;20067;48.764;9.176;2024-03-08T07:00:56;4.50;91.30
26186;DHT22;20067;48.764;9.176;2024-03-08T07:03:25;4.60;91.30
26186;DHT22;20067;48.764;9.176;2024-03-08T07:05:53;4.40;91.30
26186;DHT22;20067;48.764;9.176;2024-03-08T07:08:23;4.50;91.30
26186;DHT22;20067;48.764;9.176;2024-03-08T07:10:49;4.40;91.30
26186;DHT22;20067;48.764;9.176;2024-03-08T07:13:15;4.30;91.30
26186;DHT22;20067;48.764;9.176;2024-03-08T07:15:44;4.50;91.30
26186;DHT22;20067;48.764;9.176;2024-03-08T07:18:11;4.60;91.30
26186;DHT22;20067;48.764;9.176;2024-03-08T07:20:40;4.90;91.30
26186;DHT22;20067;48.764;9.176;2024-03-08T07:23:07;5.30;91.30
26186;DHT22;20067;48.764;9.176;2024-03-08T07:25:34;5.50;91.30
26186;DHT22;20067;48.764;9.176;2024-03-08T07:28:01;5.00;91.30
26186;DHT22;20067;48.764;9.176;2024-03-08T07:30:27;5.10;91.30
26186;DHT22;20067;48.764;9.176;2024-03-08T07:33:12;5.00;91.30
26186;DHT22;20067;48.764;9.176;2024-03-08T07:35:39;4.70;91.30
26186;DHT22;20067;48.764;9.176;2024-03-08T07:38:08;4.70;91.30
26186;DHT22;20067;48.764;9.176;2024-03-08T07:40:41;4.70;91.30
26186;DHT22;20067;48.764;9.176;2024-03-08T07:43:10;5.30;91.30
26186;DHT22;20067;48.764;9.176;2024-03-08T07:45:47;5.30;91.30
26186;DHT22;20067;48.764;9.176;2024-03-08T07:48:14;5.70;91.30
26186;DHT22;20067;48.764;9.176;2024-03-08T07:50:40;5.50;91.30
26186;DHT22;20067;48.764;9.176;2024-03-08T07:53:09;5.60;91.30
26186;DHT22;20067;48.764;9.176;2024-03-08T07:55:37;5.90;91.30
26186;DHT22;20067;48.764;9.176;2024-03-08T07:58:06;6.00;91.30
26186;DHT22;20067;48.764;9.176;2024-03-08T08:00:31;5.70;91.30
26186;DHT22;20067;48.764;9.176;2024-03-08T08:02:58;5.80;91.30
26186;DHT22;20067;48.764;9.176;2024-03-08T08:05:23;5.80;91.30
26186;DHT22;20067;48.764;9.176;2024-03-08T08:07:49;5.90;91.30
26186;DHT22;20067;48.764;9.176;2024-03-08T08:10:17;5.80;91.30
26186;DHT22;20067;48.764;9.176;2024-03-08T08:12:51;6.10;91.30
26186;DHT22;20067;48.764;9.176;2024-03-08T08:21:40;6.20;91.30
26186;DHT22;20067;48.764;9.176;2024-03-08T08:24:06;5.60;91.30
26186;DHT22;20067;48.764;9.176;2024-03-08T08:26:32;5.50;91.30
26186;DHT22;20067;48.764;9.176;2024-03-08T08:28:59;5.50;91.30
26186;DHT22;20067;48.764;9.176;2024-03-08T08:31:26;5.70;91.30
26186;DHT22;20067;48.764;9.176;2024-03-08T08:33:52;5.60;91.30
26186;DHT22;20067;48.764;9.176;2024-03-08T08:36:33;5.70;91.30
26186;DHT22;20067;48.764;9.176;2024-03-08T08:38:59;5.90;91.30
26186;DHT22;20067;48.764;9.176;2024-03-08T08:41:31;5.80;91.30
26186;DHT22;20067;48.764;9.176;2024-03-08T08:43:57;5.70;91.30
26186;DHT22;20067;48.764;9.176;2024-03-08T08:46:24;5.80;91.30
26186;DHT22;20067;48.764;9.176;2024-03-08T08:48:50;5.90;91.30
26186;DHT22;20067;48.764;9.176;2024-03-08T08:51:16;6.00;91.30
26186;DHT22;20067;48.764;9.176;2024-03-08T08:53:43;6.00;91.30
26186;DHT22;20067;48.764;9.176;2024-03-08T08:56:13;5.70;91.30
26186;DHT22;20067;48.764;9.176;2024-03-08T08:58:40;5.10;91.30
26186;DHT22;20067;48.764;9.176;2024-03-08T09:04:33;4.90;91.30
26186;DHT22;20067;48.764;9.176;2024-03-08T09:06:58;5.20;91.30
26186;DHT22;20067;48.764;9.176;2024-03-08T09:09:24;5.10;91.30
26186;DHT22;20067;48.764;9.176;2024-03-08T09:11:51;5.10;91.30
26186;DHT22;20067;48.764;9.176;2024-03-08T09:14:16;5.10;91.30
26186;DHT22;20067;48.764;9.176;2024-03-08T09:16:42;5.10;91.30
26186;DHT22;20067;48.764;9.176;2024-03-08T09:19:08;4.90;91.30
26186;DHT22;20067;48.764;9.176;2024-03-08T09:21:36;4.90;91.30
26186;DHT22;20067;48.764;9.176;2024-03-08T09:24:02;4.90;91.30
26186;DHT22;20067;48.764;9.176;2024-03-08T09:26:27;4.90;91.30
26186;DHT22;20067;48.764;9.176;2024-03-08T09:28:53;5.10;91.30
26186;DHT22;20067;48.764;9.176;2024-03-08T09:31:22;5.50;91.30
26186;DHT22;20067;48.764;9.176;2024-03-08T09:33:47;5.90;91.30
26186;DHT22;20067;48.764;9.176;2024-03-08T09:36:13;5.80;91.30
26186;DHT22;20067;48.764;9.176;2024-03-08T09:38:39;5.70;91.30
26186;DHT22;20067;48.764;9.176;2024-03-08T09:41:06;6.00;91.30
26186;DHT22;20067;48.764;9.176;2024-03-08T09:43:31;6.30;91.30
26186;DHT22;20067;48.764;9.176;2024-03-08T09:45:58;6.30;91.30
26186;DHT22;20067;48.764;9.176;2024-03-08T09:48:25;6.20;91.30
26186;DHT22;20067;48.764;9.176;2024-03-08T09:50:51;5.90;91.30
26186;DHT22;20067;48.764;9.176;2024-03-08T09:53:17;6.00;91.30
26186;DHT22;20067;48.764;9.176;2024-03-08T09:55:43;6.00;91.30
26186;DHT22;20067;48.764;9.176;2024-03-08T09:58:12;6.10;91.30
26186;DHT22;20067;48.764;9.176;2024-03-08T10:00:53;6.00;91.30
26186;DHT22;20067;48.764;9.176;2024-03-08T10:03:20;6.10;91.30
26186;DHT22;20067;48.764;9.176;2024-03-08T10:05:45;6.50;91.30
26186;DHT22;20067;48.764;9.176;2024-03-08T10:08:12;6.60;91.30
26186;DHT22;20067;48.764;9.176;2024-03-08T10:10:39;6.20;91.30
26186;DHT22;20067;48.764;9.176;2024-03-08T10:13:08;6.00;91.30
26186;DHT22;20067;48.764;9.176;2024-03-08T10:15:35;5.90;91.30
26186;DHT22;20067;48.764;9.176;2024-03-08T10:18:01;6.40;91.30
26186;DHT22;20067;48.764;9.176;2024-03-08T10:20:31;6.90;91.30
26186;DHT22;20067;48.764;9.176;2024-03-08T10:23:03;7.40;91.30
26186;DHT22;20067;48.764;9.176;2024-03-08T10:25:30;7.50;91.30
26186;DHT22;20067;48.764;9.176;2024-03-08T10:27:56;7.50;91.30
26186;DHT22;20067;48.764;9.176;2024-03-08T10:30:22;7.40;91.30
26186;DHT22;20067;48.764;9.176;2024-03-08T10:32:48;6.90;91.30
26186;DHT22;20067;48.764;9.176;2024-03-08T10:35:14;6.80;91.30
26186;DHT22;20067;48.764;9.176;2024-03-08T10:37:49;7.50;91.30
26186;DHT22;20067;48.764;9.176;2024-03-08T10:40:24;7.90;91.30
26186;DHT22;20067;48.764;9.176;2024-03-08T10:42:58;7.60;91.30
26186;DHT22;20067;48.764;9.176;2024-03-08T10:50:30;7.20;91.30
26186;DHT22;20067;48.764;9.176;2024-03-08T10:53:00;7.70;91.30
26186;DHT22;20067;48.764;9.176;2024-03-08T10:55:28;8.00;91.10
26186;DHT22;20067;48.764;9.176;2024-03-08T10:57:53;8.00;90.50
26186;DHT22;20067;48.764;9.176;2024-03-08T11:00:20;8.00;91.20
26186;DHT22;20067;48.764;9.176;2024-03-08T11:02:53;8.30;90.20
26186;DHT22;20067;48.764;9.176;2024-03-08T11:08:01;9.90;85.80
26186;DHT22;20067;48.764;9.176;2024-03-08T11:10:28;10.00;86.00
26186;DHT22;20067;48.764;9.176;2024-03-08T11:12:53;9.80;86.00
26186;DHT22;20067;48.764;9.176;2024-03-08T11:15:19;9.90;85.80
26186;DHT22;20067;48.764;9.176;2024-03-08T11:17:50;9.30;87.00
26186;DHT22;20067;48.764;9.176;2024-03-08T11:20:18;9.40;86.80
26186;DHT22;20067;48.764;9.176;2024-03-08T11:23:00;9.30;87.10
26186;DHT22;20067;48.764;9.176;2024-03-08T11:25:40;9.80;87.20
26186;DHT22;20067;48.764;9.176;2024-03-08T11:28:17;9.70;86.60
26186;DHT22;20067;48.764;9.176;2024-03-08T11:33:29;10.40;85.00
26186;DHT22;20067;48.764;9.176;2024-03-08T11:38:43;8.80;88.80
26186;DHT22;20067;48.764;9.176;2024-03-08T11:41:17;9.00;88.10
26186;DHT22;20067;48.764;9.176;2024-03-08T11:43:45;8.50;88.80
26186;DHT22;20067;48.764;9.176;2024-03-08T11:46:11;8.20;90.20
26186;DHT22;20067;48.764;9.176;2024-03-08T11:48:44;9.00;89.00
26186;DHT22;20067;48.764;9.176;2024-03-08T11:51:14;9.20;87.70
26186;DHT22;20067;48.764;9.176;2024-03-08T11:53:40;9.00;87.60
26186;DHT22;20067;48.764;9.176;2024-03-08T11:56:10;9.60;87.50
26186;DHT22;20067;48.764;9.176;2024-03-08T11:58:37;10.10;85.50
26186;DHT22;20067;48.764;9.176;2024-03-08T12:01:07;9.80;85.90
26186;DHT22;20067;48.764;9.176;2024-03-08T12:03:33;9.60;86.10
26186;DHT22;20067;48.764;9.176;2024-03-08T12:06:00;8.50;88.60
26186;DHT22;20067;48.764;9.176;2024-03-08T12:08:26;8.40;89.50
26186;DHT22;20067;48.764;9.176;2024-03-08T12:10:55;8.40;89.60
26186;DHT22;20067;48.764;9.176;2024-03-08T12:13:29;8.30;89.40
26186;DHT22;20067;48.764;9.176;2024-03-08T12:15:58;8.00;90.80
26186;DHT22;20067;48.764;9.176;2024-03-08T12:18:27;8.00;90.80
26186;DHT22;20067;48.764;9.176;2024-03-08T12:21:10;8.10;91.10
26186;DHT22;20067;48.764;9.176;2024-03-08T12:23:36;8.60;89.60
26186;DHT22;20067;48.764;9.176;2024-03-08T12:26:15;8.50;90.00
26186;DHT22;20067;48.764;9.176;2024-03-08T12:28:42;8.80;89.60
26186;DHT22;20067;48.764;9.176;2024-03-08T12:31:14;9.30;88.30
26186;DHT22;20067;48.764;9.176;2024-03-08T12:33:54;9.00;88.10
26186;DHT22;20067;48.764;9.176;2024-03-08T12:36:24;9.10;88.70
26186;DHT22;20067;48.764;9.176;2024-03-08T12:38:53;9.70;87.20
26186;DHT22;20067;48.764;9.176;2024-03-08T12:41:20;9.60;87.50
26186;DHT22;20067;48.764;9.176;2024-03-08T12:43:47;9.80;86.30
26186;DHT22;20067;48.764;9.176;2024-03-08T12:46:16;9.60;86.50
26186;DHT22;20067;48.764;9.176;2024-03-08T12:48:43;9.50;87.50
26186;DHT22;20067;48.764;9.176;2024-03-08T12:51:13;9.50;87.90
26186;DHT22;20067;48.764;9.176;2024-03-08T12:53:38;9.30;87.40
26186;DHT22;20067;48.764;9.176;2024-03-08T12:56:06;8.80;88.30
26186;DHT22;20067;48.764;9.176;2024-03-08T12:58:34;9.20;88.00
26186;DHT22;20067;48.764;9.176;2024-03-08T13:01:03;9.30;88.20
26186;DHT22;20067;48.764;9.176;2024-03-08T13:03:36;9.20;88.10
26186;DHT22;20067;48.764;9.176;2024-03-08T13:06:06;9.20;88.30
26186;DHT22;20067;48.764;9.176;2024-03-08T13:08:36;9.10;88.40
26186;DHT22;20067;48.764;9.176;2024-03-08T13:11:05;9.30;88.70
26186;DHT22;20067;48.764;9.176;2024-03-08T13:13:36;9.30;87.70
26186;DHT22;20067;48.764;9.176;2024-03-08T13:16:02;9.20;87.80
26186;DHT22;20067;48.764;9.176;2024-03-08T13:18:28;9.30;87.40
26186;DHT22;20067;48.764;9.176;2024-03-08T13:20:54;9.40;87.40
26186;DHT22;20067;48.764;9.176;2024-03-08T13:23:20;9.40;87.90
26186;DHT22;20067;48.764;9.176;2024-03-08T13:25:46;9.60;87.10
26186;DHT22;20067;48.764;9.176;2024-03-08T13:28:15;10.00;85.90
26186;DHT22;20067;48.764;9.176;2024-03-08T13:30:41;10.90;83.70
26186;DHT22;20067;48.764;9.176;2024-03-08T13:33:07;12.10;81.30
26186;DHT22;20067;48.764;9.176;2024-03-08T13:35:33;12.90;79.30
26186;DHT22;20067;48.764;9.176;2024-03-08T13:38:00;14.00;76.60
26186;DHT22;20067;48.764;9.176;2024-03-08T13:40:28;15.30;74.20
26186;DHT22;20067;48.764;9.176;2024-03-08T13:42:54;15.40;73.00
26186;DHT22;20067;48.764;9.176;2024-03-08T13:45:19;15.30;72.40
26186;DHT22;20067;48.764;9.176;2024-03-08T13:47:50;14.40;73.80
26186;DHT22;20067;48.764;9.176;2024-03-08T13:50:19;14.80;74.20
26186;DHT22;20067;48.764;9.176;2024-03-08T13:52:50;15.00;73.40
26186;DHT22;20067;48.764;9.176;2024-03-08T13:55:19;14.30;73.50
26186;DHT22;20067;48.764;9.176;2024-03-08T13:57:45;13.90;74.70
26186;DHT22;20067;48.764;9.176;2024-03-08T14:00:12;13.60;75.80
26186;DHT22;20067;48.764;9.176;2024-03-08T14:02:38;12.40;77.80
26186;DHT22;20067;48.764;9.176;2024-03-08T14:05:06;12.20;79.20
26186;DHT22;20067;48.764;9.176;2024-03-08T14:07:34;11.70;80.40
26186;DHT22;20067;48.764;9.176;2024-03-08T14:10:00;10.90;81.90
26186;DHT22;20067;48.764;9.176;2024-03-08T14:12:26;10.60;82.80
26186;DHT22;20067;48.764;9.176;2024-03-08T14:14:54;10.80;83.20
26186;DHT22;20067;48.764;9.176;2024-03-08T14:17:20;10.90;82.80
26186;DHT22;20067;48.764;9.176;2024-03-08T14:19:45;11.10;81.70
26186;DHT22;20067;48.764;9.176;2024-03-08T14:22:11;10.60;82.70
26186;DHT22;20067;48.764;9.176;2024-03-08T14:24:40;10.50;83.50
26186;DHT22;20067;48.764;9.176;2024-03-08T14:27:08;10.70;82.80
26186;DHT22;20067;48.764;9.176;2024-03-08T14:29:35;10.90;82.80
26186;DHT22;20067;48.764;9.176;2024-03-08T14:32:01;11.00;82.70
26186;DHT22;20067;48.764;9.176;2024-03-08T14:34:28;11.80;81.30
26186;DHT22;20067;48.764;9.176;2024-03-08T14:36:55;13.00;79.40
26186;DHT22;20067;48.764;9.176;2024-03-08T14:39:21;15.00;74.80
26186;DHT22;20067;48.764;9.176;2024-03-08T14:41:52;15.40;72.50
26186;DHT22;20067;48.764;9.176;2024-03-08T14:44:19;16.40;70.60
26186;DHT22;20067;48.764;9.176;2024-03-08T14:46:45;16.10;69.40
26186;DHT22;20067;48.764;9.176;2024-03-08T14:49:11;14.40;72.70
26186;DHT22;20067;48.764;9.176;2024-03-08T14:51:37;12.90;76.20
26186;DHT22;20067;48.764;9.176;2024-03-08T14:54:03;11.90;79.00
26186;DHT22;20067;48.764;9.176;2024-03-08T14:56:32;11.90;80.70
26186;DHT22;20067;48.764;9.176;2024-03-08T14:58:58;13.50;77.80
26186;DHT22;20067;48.764;9.176;2024-03-08T15:01:24;15.80;72.60
26186;DHT22;20067;48.764;9.176;2024-03-08T15:03:55;17.70;68.10
26186;DHT22;20067;48.764;9.176;2024-03-08T15:06:20;17.10;68.00
26186;DHT22;20067;48.764;9.176;2024-03-08T15:08:46;16.10;70.30
26186;DHT22;20067;48.764;9.176;2024-03-08T15:11:12;16.00;70.10
26186;DHT22;20067;48.764;9.176;2024-03-08T15:13:49;16.90;69.50
26186;DHT22;20067;48.764;9.176;2024-03-08T15:16:18;17.90;67.00
26186;DHT22;20067;48.764;9.176;2024-03-08T15:18:44;19.50;64.90
26186;DHT22;20067;48.764;9.176;2024-03-08T15:21:14;19.70;63.50
26186;DHT22;20067;48.764;9.176;2024-03-08T15:23:47;18.50;64.00
26186;DHT22;20067;48.764;9.176;2024-03-08T15:26:17;17.40;66.40
26186;DHT22;20067;48.764;9.176;2024-03-08T15:28:43;17.10;67.50
26186;DHT22;20067;48.764;9.176;2024-03-08T15:31:11;17.10;67.50
26186;DHT22;20067;48.764;9.176;2024-03-08T15:33:38;17.30;66.80
26186;DHT22;20067;48.764;9.176;2024-03-08T15:36:13;17.20;67.30
26186;DHT22;20067;48.764;9.176;2024-03-08T15:38:41;16.30;69.10
26186;DHT22;20067;48.764;9.176;2024-03-08T15:41:09;15.30;70.80
26186;DHT22;20067;48.764;9.176;2024-03-08T15:43:39;14.40;73.20
26186;DHT22;20067;48.764;9.176;2024-03-08T15:46:08;12.90;76.20
26186;DHT22;20067;48.764;9.176;2024-03-08T15:48:35;12.10;79.10
26186;DHT22;20067;48.764;9.176;2024-03-08T15:51:02;11.80;80.10
26186;DHT22;20067;48.764;9.176;2024-03-08T15:53:28;11.60;81.20
26186;DHT22;20067;48.764;9.176;2024-03-08T15:55:58;11.70;81.70
26186;DHT22;20067;48.764;9.176;2024-03-08T15:58:24;12.40;80.10
26186;DHT22;20067;48.764;9.176;2024-03-08T16:00:51;13.60;77.60
26186;DHT22;20067;48.764;9.176;2024-03-08T16:03:18;14.20;75.60
26186;DHT22;20067;48.764;9.176;2024-03-08T16:05:46;14.80;74.30